Trois-Pistoles, Canada
Current Conditions -  °F | °C
As of 3:00 AM on Friday 24 Oct 2014 (Local Time) from CYYY Reporting Station
Clear Clear  
Wind Chill: 29°   Ceiling: Unl
Heat Index: 37°   Visibility: 30mi
Dew Point: 36°   Wind: 14mph
Humidity: 93%   Direction: 50°NE
Pressure: 30"   Gusts: NA
Location:  48.12°N, 69.17°W
Report Text: CYYY 240700Z 05012KT 30SM SKC 03/02 A3000 RMK SLP160
Loading
Personal Weather Stations






























Interactive Weather Map
Tropical Storm Tracking
New forecast layout! Learn more

10-Day Weather Forecast

Advertisements
Track Severe Weather on mobile